createdAt,value
2022-12-25T00:00:04.621Z,1.50
2022-12-25T00:02:32.025Z,1.50
2022-12-25T00:04:59.216Z,1.80
2022-12-25T00:07:26.416Z,1.70
2022-12-25T00:09:53.633Z,1.60
2022-12-25T00:12:22.274Z,1.63
2022-12-25T00:14:49.397Z,1.63
2022-12-25T00:17:17.354Z,1.40
2022-12-25T00:19:44.518Z,1.70
2022-12-25T00:22:11.674Z,1.60
2022-12-25T00:24:38.854Z,1.60
2022-12-25T00:27:05.994Z,1.60
2022-12-25T00:29:33.147Z,1.60
2022-12-25T00:32:01.079Z,1.53
2022-12-25T00:34:28.260Z,1.43
2022-12-25T00:36:55.385Z,1.50
2022-12-25T00:39:22.576Z,1.50
2022-12-25T00:42:08.537Z,1.57
2022-12-25T00:44:35.822Z,1.60
2022-12-25T00:47:03.075Z,1.43
2022-12-25T00:49:30.341Z,1.60
2022-12-25T00:51:57.503Z,1.60
2022-12-25T00:54:24.617Z,1.30
2022-12-25T00:56:51.818Z,1.50
2022-12-25T00:59:18.971Z,1.60
2022-12-25T01:01:46.233Z,1.53
2022-12-25T01:04:13.511Z,1.50
2022-12-25T01:06:40.961Z,1.60
2022-12-25T01:09:26.769Z,1.47
2022-12-25T01:11:54.164Z,1.63
2022-12-25T01:14:21.305Z,1.60
2022-12-25T01:16:48.446Z,1.50
2022-12-25T01:19:15.907Z,1.50
2022-12-25T01:21:43.021Z,1.50
2022-12-25T01:24:10.202Z,1.40
2022-12-25T01:26:37.419Z,1.53
2022-12-25T01:29:04.570Z,1.33
2022-12-25T01:31:31.744Z,1.40
2022-12-25T01:33:59.008Z,1.60
2022-12-25T01:36:26.833Z,1.50
2022-12-25T01:38:54.460Z,1.40
2022-12-25T01:41:22.941Z,1.37
2022-12-25T01:44:19.407Z,1.97
2022-12-25T01:46:46.869Z,1.80
2022-12-25T01:49:18.931Z,2.10
2022-12-25T01:51:48.905Z,1.70
2022-12-25T01:54:18.086Z,1.60
2022-12-25T01:56:46.413Z,1.40
2022-12-25T01:59:14.669Z,2.00
2022-12-25T02:01:42.023Z,1.50
2022-12-25T02:04:22.144Z,1.60
2022-12-25T02:06:50.636Z,1.37
2022-12-25T02:09:18.435Z,1.60
2022-12-25T02:11:59.288Z,1.30
2022-12-25T02:14:28.629Z,1.50
2022-12-25T02:17:09.865Z,1.20
2022-12-25T02:19:37.325Z,1.43
2022-12-25T02:22:23.590Z,1.30
2022-12-25T02:25:10.801Z,1.40
2022-12-25T02:27:46.798Z,1.40
2022-12-25T02:30:14.028Z,1.37
2022-12-25T02:33:19.790Z,1.30
2022-12-25T02:35:48.377Z,1.40
2022-12-25T02:38:20.401Z,1.50
2022-12-25T02:40:58.573Z,1.40
2022-12-25T02:44:00.160Z,1.40
2022-12-25T02:46:46.792Z,1.50
2022-12-25T02:49:35.209Z,1.50
2022-12-25T02:52:26.421Z,1.30
2022-12-25T02:55:14.398Z,1.57
2022-12-25T02:58:02.238Z,1.30
2022-12-25T03:00:49.194Z,1.50
2022-12-25T03:03:35.915Z,1.40
2022-12-25T03:06:23.166Z,1.40
2022-12-25T03:08:52.676Z,1.40
2022-12-25T03:11:32.487Z,1.47
2022-12-25T03:14:22.629Z,1.40
2022-12-25T03:16:51.308Z,1.40
2022-12-25T03:19:37.944Z,1.30
2022-12-25T03:22:24.356Z,1.50
2022-12-25T03:25:10.336Z,1.50
2022-12-25T03:27:38.432Z,1.40
2022-12-25T03:30:25.481Z,1.30
2022-12-25T03:32:58.815Z,1.17
2022-12-25T03:35:43.301Z,1.33
2022-12-25T03:38:38.224Z,1.47
2022-12-25T03:41:35.733Z,1.43
2022-12-25T03:44:29.870Z,1.40
2022-12-25T03:47:20.455Z,1.40
2022-12-25T03:50:12.721Z,1.40
2022-12-25T03:52:58.570Z,1.40
2022-12-25T03:55:45.140Z,1.83
2022-12-25T03:58:41.299Z,1.53
2022-12-25T04:01:27.483Z,1.43
2022-12-25T04:04:13.380Z,1.30
2022-12-25T04:06:59.325Z,1.40
2022-12-25T04:09:45.347Z,1.50
2022-12-25T04:12:31.296Z,1.47
2022-12-25T04:15:17.299Z,1.30
2022-12-25T04:18:03.439Z,1.40
2022-12-25T04:20:49.339Z,1.50
2022-12-25T04:23:35.336Z,1.57
2022-12-25T04:26:21.268Z,1.50
2022-12-25T04:29:07.220Z,1.60
2022-12-25T04:31:53.298Z,1.50
2022-12-25T04:34:39.320Z,1.40
2022-12-25T04:37:06.449Z,1.60
2022-12-25T04:39:33.596Z,1.67
2022-12-25T04:42:01.111Z,1.50
2022-12-25T04:44:28.476Z,1.50
2022-12-25T04:46:55.724Z,1.40
2022-12-25T04:49:22.900Z,1.33
2022-12-25T04:51:50.033Z,1.77
2022-12-25T04:54:17.173Z,1.73
2022-12-25T04:56:45.922Z,1.60
2022-12-25T04:59:13.317Z,1.50
2022-12-25T05:01:40.639Z,1.50
2022-12-25T05:04:07.975Z,1.50
2022-12-25T05:06:35.110Z,1.50
2022-12-25T05:09:02.230Z,1.50
2022-12-25T05:11:29.381Z,1.57
2022-12-25T05:13:57.566Z,1.60
2022-12-25T05:16:26.357Z,1.70
2022-12-25T05:18:53.676Z,1.50
2022-12-25T05:21:21.019Z,1.60
2022-12-25T05:23:52.022Z,1.60
2022-12-25T05:26:21.092Z,1.50
2022-12-25T05:28:48.315Z,1.60
2022-12-25T05:31:15.537Z,1.50
2022-12-25T05:33:42.776Z,1.80
2022-12-25T05:36:11.262Z,1.40
2022-12-25T05:38:38.617Z,1.63
2022-12-25T05:41:05.898Z,1.40
2022-12-25T05:43:33.159Z,1.60
2022-12-25T05:46:04.779Z,1.47
2022-12-25T05:48:31.947Z,1.43
2022-12-25T05:50:59.074Z,1.50
2022-12-25T05:53:26.248Z,1.60
2022-12-25T05:55:53.615Z,1.63
2022-12-25T05:58:20.737Z,1.67
2022-12-25T06:00:47.903Z,1.50
2022-12-25T06:03:15.134Z,1.43
2022-12-25T06:05:42.308Z,1.50
2022-12-25T06:08:09.468Z,1.50
2022-12-25T06:10:36.850Z,1.60
2022-12-25T06:13:04.053Z,1.70
2022-12-25T06:15:31.211Z,1.63
2022-12-25T06:18:00.661Z,1.67
2022-12-25T06:20:27.991Z,1.97
2022-12-25T06:22:55.206Z,1.70
2022-12-25T06:25:22.354Z,1.70
2022-12-25T06:27:49.517Z,1.87
2022-12-25T06:30:16.698Z,1.90
2022-12-25T06:32:43.832Z,1.80
2022-12-25T06:35:10.954Z,1.80
2022-12-25T06:37:38.111Z,2.10
2022-12-25T06:40:05.462Z,1.90
2022-12-25T06:42:32.613Z,2.00
2022-12-25T06:44:59.800Z,2.10
2022-12-25T06:47:26.930Z,2.77
2022-12-25T06:49:54.061Z,2.07
2022-12-25T06:52:21.196Z,2.20
2022-12-25T06:54:48.415Z,1.93
2022-12-25T06:57:15.565Z,2.13
2022-12-25T06:59:42.746Z,2.13
2022-12-25T07:02:15.933Z,2.23
2022-12-25T07:04:43.326Z,2.30
2022-12-25T07:07:10.988Z,2.27
2022-12-25T07:09:42.448Z,2.20
2022-12-25T07:12:23.552Z,2.50
2022-12-25T07:14:51.296Z,2.40
2022-12-25T07:17:18.860Z,2.80
2022-12-25T07:19:49.413Z,2.60
2022-12-25T07:22:17.086Z,2.60
2022-12-25T07:24:44.235Z,2.70
2022-12-25T07:27:11.630Z,2.73
2022-12-25T07:29:38.902Z,2.80
2022-12-25T07:32:06.279Z,2.73
2022-12-25T07:34:33.459Z,3.00
2022-12-25T07:37:00.689Z,3.10
2022-12-25T07:39:28.922Z,3.10
2022-12-25T07:41:56.058Z,3.17
2022-12-25T07:44:23.227Z,3.37
2022-12-25T07:46:50.366Z,3.20
2022-12-25T07:49:17.537Z,3.30
2022-12-25T07:51:44.807Z,3.60
2022-12-25T07:54:11.923Z,3.60
2022-12-25T07:56:39.188Z,3.73
2022-12-25T07:59:06.381Z,3.80
2022-12-25T08:01:33.938Z,4.00
2022-12-25T08:04:02.261Z,4.10
2022-12-25T08:06:34.417Z,4.03
2022-12-25T08:09:06.163Z,3.50
2022-12-25T08:11:33.499Z,3.57
2022-12-25T08:14:00.747Z,4.37
2022-12-25T08:16:27.997Z,4.17
2022-12-25T08:18:55.182Z,4.37
2022-12-25T08:21:22.450Z,4.33
2022-12-25T08:23:49.612Z,4.83
2022-12-25T08:26:18.341Z,4.97
2022-12-25T08:28:45.541Z,4.63
2022-12-25T08:31:16.031Z,5.03
2022-12-25T08:33:43.351Z,4.50
2022-12-25T08:36:11.281Z,4.40
2022-12-25T08:38:38.765Z,4.70
2022-12-25T08:41:06.039Z,4.30
2022-12-25T08:43:33.358Z,4.67
2022-12-25T08:46:00.623Z,4.37
2022-12-25T08:48:28.501Z,3.70
2022-12-25T08:50:55.942Z,4.53
2022-12-25T08:53:23.558Z,4.10
2022-12-25T08:55:50.782Z,4.33
2022-12-25T08:58:18.013Z,4.53
2022-12-25T09:00:45.160Z,4.67
2022-12-25T09:03:12.502Z,4.57
2022-12-25T09:05:39.743Z,4.47
2022-12-25T09:08:07.053Z,4.70
2022-12-25T09:10:36.710Z,5.70
2022-12-25T09:13:04.370Z,5.27
2022-12-25T09:15:32.459Z,4.93
2022-12-25T09:17:59.634Z,5.50
2022-12-25T09:20:26.820Z,4.90
2022-12-25T09:22:53.941Z,5.50
2022-12-25T09:25:21.064Z,5.30
2022-12-25T09:27:48.473Z,5.30
2022-12-25T09:30:15.687Z,5.53
2022-12-25T09:32:42.811Z,5.23
2022-12-25T09:35:10.154Z,5.63
2022-12-25T09:37:37.303Z,5.30
2022-12-25T09:40:04.739Z,5.80
2022-12-25T09:42:34.522Z,6.10
2022-12-25T09:45:04.057Z,5.63
2022-12-25T09:47:32.956Z,6.10
2022-12-25T09:50:00.112Z,6.70
2022-12-25T09:52:35.305Z,5.80
2022-12-25T09:55:08.598Z,6.43
2022-12-25T09:57:35.754Z,7.30
2022-12-25T10:00:02.936Z,6.30
2022-12-25T10:02:56.638Z,6.60
2022-12-25T10:05:23.875Z,7.10
2022-12-25T10:07:57.902Z,6.63
2022-12-25T10:10:24.991Z,6.50
2022-12-25T10:13:06.765Z,8.60
2022-12-25T10:15:39.223Z,9.93
2022-12-25T10:18:27.881Z,10.30
2022-12-25T10:20:56.587Z,11.80
2022-12-25T10:23:26.356Z,7.93
2022-12-25T10:25:54.498Z,11.33
2022-12-25T10:28:31.093Z,11.67
2022-12-25T10:31:01.228Z,7.70
2022-12-25T10:33:28.670Z,8.13
2022-12-25T10:35:55.834Z,8.17
2022-12-25T10:38:23.360Z,10.13
2022-12-25T10:41:09.388Z,8.87
2022-12-25T10:43:42.268Z,10.30
2022-12-25T10:46:13.176Z,15.47
2022-12-25T10:48:42.952Z,11.47
2022-12-25T10:51:10.190Z,13.40
2022-12-25T10:53:44.058Z,16.13
2022-12-25T10:56:16.705Z,12.53
2022-12-25T10:58:44.090Z,18.53
2022-12-25T11:01:11.569Z,15.97
2022-12-25T11:03:40.207Z,13.80
2022-12-25T11:06:08.227Z,11.53
2022-12-25T11:08:35.469Z,14.13
2022-12-25T11:11:06.313Z,15.70
2022-12-25T11:13:37.894Z,13.17
2022-12-25T11:16:10.629Z,18.07
2022-12-25T11:18:51.141Z,16.37
2022-12-25T11:21:27.476Z,10.73
2022-12-25T11:24:04.616Z,16.53
2022-12-25T11:26:36.780Z,12.43
2022-12-25T11:29:04.529Z,17.27
2022-12-25T11:31:40.312Z,21.47
2022-12-25T11:34:10.555Z,19.50
2022-12-25T11:36:51.226Z,18.07
2022-12-25T11:39:25.973Z,16.33
2022-12-25T11:41:55.663Z,12.23
2022-12-25T11:44:35.947Z,20.37
2022-12-25T11:47:16.739Z,15.07
2022-12-25T11:49:53.963Z,17.07
2022-12-25T11:52:25.635Z,20.63
2022-12-25T11:54:56.472Z,18.77
2022-12-25T11:57:25.763Z,14.20
2022-12-25T11:59:56.001Z,12.50
2022-12-25T12:02:30.006Z,19.37
2022-12-25T12:05:17.487Z,15.70
2022-12-25T12:08:04.145Z,24.63
2022-12-25T12:10:37.426Z,18.07
2022-12-25T12:13:27.846Z,22.50
2022-12-25T12:15:55.176Z,17.93
2022-12-25T12:18:23.977Z,20.33
2022-12-25T12:21:06.228Z,19.00
2022-12-25T12:23:54.310Z,23.70
2022-12-25T12:26:22.388Z,12.57
2022-12-25T12:28:50.184Z,14.20
2022-12-25T12:31:17.715Z,10.73
2022-12-25T12:33:51.241Z,14.82
2022-12-25T12:36:34.474Z,13.63
2022-12-25T12:39:02.581Z,10.17
2022-12-25T12:41:43.710Z,11.97
2022-12-25T12:44:11.896Z,15.63
2022-12-25T12:46:40.383Z,7.17
2022-12-25T12:49:17.756Z,8.50
2022-12-25T12:51:44.902Z,6.67
2022-12-25T12:54:25.616Z,5.87
2022-12-25T12:57:15.872Z,5.60
2022-12-25T12:59:46.732Z,6.20
2022-12-25T13:02:23.308Z,5.30
2022-12-25T13:05:02.506Z,4.57
2022-12-25T13:07:35.988Z,5.37
2022-12-25T13:10:10.075Z,5.30
2022-12-25T13:12:37.556Z,5.10
2022-12-25T13:15:05.018Z,5.10
2022-12-25T13:17:32.211Z,4.90
2022-12-25T13:20:00.561Z,4.90
2022-12-25T13:22:35.111Z,4.93
2022-12-25T13:25:03.232Z,5.10
2022-12-25T13:27:31.215Z,4.90
2022-12-25T13:29:58.789Z,4.80
2022-12-25T13:32:27.807Z,5.03
2022-12-25T13:34:54.990Z,4.47
2022-12-25T13:37:26.225Z,4.87
2022-12-25T13:39:55.474Z,4.53
2022-12-25T13:42:24.817Z,5.70
2022-12-25T13:44:54.458Z,4.77
2022-12-25T13:47:23.741Z,4.40
2022-12-25T13:49:51.662Z,4.43
2022-12-25T13:52:21.182Z,5.07
2022-12-25T13:55:21.067Z,3.83
2022-12-25T13:57:59.059Z,4.50
2022-12-25T14:00:31.113Z,4.53
2022-12-25T14:02:59.077Z,4.80
2022-12-25T14:05:36.120Z,4.90
2022-12-25T14:08:20.846Z,4.50
2022-12-25T14:10:49.952Z,5.37
2022-12-25T14:13:17.213Z,5.33
2022-12-25T14:15:46.223Z,5.00
2022-12-25T14:18:17.597Z,5.43
2022-12-25T14:21:05.005Z,5.20
2022-12-25T14:23:52.412Z,5.03
2022-12-25T14:26:20.733Z,5.43
2022-12-25T14:28:54.486Z,4.83
2022-12-25T14:31:21.987Z,5.65
2022-12-25T14:33:49.726Z,5.10
2022-12-25T14:36:17.128Z,5.10
2022-12-25T14:38:44.359Z,5.53
2022-12-25T14:41:21.211Z,5.70
2022-12-25T14:43:55.538Z,5.40
2022-12-25T14:46:24.097Z,5.40
2022-12-25T14:48:59.347Z,5.50
2022-12-25T14:51:26.989Z,5.80
2022-12-25T14:53:55.228Z,5.60
2022-12-25T14:56:23.669Z,5.30
2022-12-25T14:58:55.181Z,5.67
2022-12-25T15:01:24.377Z,5.63
2022-12-25T15:03:51.664Z,5.57
2022-12-25T15:06:24.863Z,5.40
2022-12-25T15:08:56.601Z,6.03
2022-12-25T15:11:23.759Z,6.77
2022-12-25T15:13:51.151Z,6.20
2022-12-25T15:16:44.719Z,6.43
2022-12-25T15:19:14.048Z,6.57
2022-12-25T15:21:41.626Z,7.00
2022-12-25T15:24:11.480Z,6.47
2022-12-25T15:26:38.607Z,6.57
2022-12-25T15:29:09.186Z,6.83
2022-12-25T15:31:37.853Z,6.30
2022-12-25T15:34:07.174Z,6.23
2022-12-25T15:36:34.552Z,6.57
2022-12-25T15:39:01.704Z,6.50
2022-12-25T15:41:49.392Z,6.10
2022-12-25T15:44:16.957Z,5.90
2022-12-25T15:46:44.345Z,5.50
2022-12-25T15:49:11.716Z,5.37
2022-12-25T15:51:39.180Z,5.37
2022-12-25T15:54:06.742Z,5.60
2022-12-25T15:56:54.351Z,5.23
2022-12-25T15:59:21.609Z,5.30
2022-12-25T16:01:52.699Z,4.73
2022-12-25T16:04:20.315Z,5.27
2022-12-25T16:06:47.542Z,5.10
2022-12-25T16:09:15.947Z,5.37
2022-12-25T16:11:43.680Z,4.93
2022-12-25T16:14:11.028Z,5.73
2022-12-25T16:16:38.725Z,6.07
2022-12-25T16:19:06.299Z,6.17
2022-12-25T16:21:41.623Z,8.13
2022-12-25T16:24:09.194Z,9.57
2022-12-25T16:26:36.363Z,9.10
2022-12-25T16:29:07.199Z,9.77
2022-12-25T16:31:35.222Z,9.93
2022-12-25T16:34:02.686Z,11.00
2022-12-25T16:36:29.828Z,12.50
2022-12-25T16:38:57.207Z,10.43
2022-12-25T16:41:24.438Z,10.63
2022-12-25T16:43:51.654Z,10.33
2022-12-25T16:46:22.493Z,9.53
2022-12-25T16:48:50.089Z,10.90
2022-12-25T16:51:20.254Z,10.07
2022-12-25T16:53:47.871Z,9.93
2022-12-25T16:56:16.498Z,10.37
2022-12-25T16:58:45.752Z,10.80
2022-12-25T17:01:13.951Z,10.93
2022-12-25T17:03:41.252Z,12.43
2022-12-25T17:06:14.704Z,12.33
2022-12-25T17:08:42.254Z,14.60
2022-12-25T17:11:09.629Z,12.33
2022-12-25T17:13:36.988Z,12.27
2022-12-25T17:16:14.995Z,12.00
2022-12-25T17:18:42.164Z,11.50
2022-12-25T17:21:09.658Z,11.37
2022-12-25T17:23:37.915Z,11.73
2022-12-25T17:26:05.608Z,11.00
2022-12-25T17:28:34.307Z,11.33
2022-12-25T17:31:05.746Z,11.30
2022-12-25T17:33:33.811Z,11.50
2022-12-25T17:36:04.875Z,12.67
2022-12-25T17:38:32.729Z,15.70
2022-12-25T17:41:00.674Z,13.60
2022-12-25T17:43:27.875Z,17.17
2022-12-25T17:45:55.042Z,16.27
2022-12-25T17:48:22.165Z,17.40
2022-12-25T17:50:49.608Z,16.83
2022-12-25T17:53:16.866Z,18.40
2022-12-25T17:55:44.357Z,17.77
2022-12-25T17:58:11.535Z,23.77
2022-12-25T18:00:38.743Z,17.40
2022-12-25T18:03:11.695Z,21.33
2022-12-25T18:05:39.306Z,16.57
2022-12-25T18:08:06.448Z,17.50
2022-12-25T18:10:37.558Z,18.07
2022-12-25T18:13:05.242Z,17.50
2022-12-25T18:15:32.397Z,15.57
2022-12-25T18:17:59.585Z,19.80
2022-12-25T18:20:26.753Z,17.87
2022-12-25T18:22:53.933Z,16.90
2022-12-25T18:25:21.076Z,16.27
2022-12-25T18:27:48.264Z,19.73
2022-12-25T18:30:15.500Z,12.90
2022-12-25T18:32:42.623Z,15.67
2022-12-25T18:35:09.957Z,13.73
2022-12-25T18:37:40.168Z,14.40
2022-12-25T18:40:07.895Z,14.43
2022-12-25T18:42:40.971Z,13.90
2022-12-25T18:45:09.407Z,14.53
2022-12-25T18:47:36.555Z,13.60
2022-12-25T18:50:04.104Z,14.23
2022-12-25T18:52:48.460Z,13.77
2022-12-25T18:55:18.509Z,14.07
2022-12-25T18:57:45.681Z,14.23
2022-12-25T19:00:12.919Z,12.70
2022-12-25T19:02:40.220Z,13.30
2022-12-25T19:05:07.699Z,11.53
2022-12-25T19:07:34.895Z,14.33
2022-12-25T19:10:02.066Z,16.63
2022-12-25T19:12:29.230Z,12.10
2022-12-25T19:14:56.369Z,14.33
2022-12-25T19:17:31.194Z,17.60
2022-12-25T19:19:58.795Z,13.60
2022-12-25T19:22:25.975Z,13.37
2022-12-25T19:24:53.116Z,12.33
2022-12-25T19:27:20.252Z,13.67
2022-12-25T19:29:47.550Z,14.57
2022-12-25T19:32:14.707Z,10.77
2022-12-25T19:34:41.900Z,8.80
2022-12-25T19:37:09.175Z,9.40
2022-12-25T19:39:36.325Z,8.30
2022-12-25T19:42:03.533Z,8.47
2022-12-25T19:44:30.804Z,7.97
2022-12-25T19:46:57.962Z,8.23
2022-12-25T19:49:25.160Z,8.97
2022-12-25T19:51:52.334Z,8.37
2022-12-25T19:54:20.759Z,8.83
2022-12-25T19:56:48.629Z,8.67
2022-12-25T19:59:16.098Z,7.07
2022-12-25T20:01:43.766Z,8.13
2022-12-25T20:04:11.390Z,8.13
2022-12-25T20:06:39.416Z,7.50
2022-12-25T20:09:08.507Z,7.97
2022-12-25T20:11:36.480Z,7.90
2022-12-25T20:14:04.051Z,7.00
2022-12-25T20:16:31.386Z,6.77
2022-12-25T20:18:59.251Z,6.30
2022-12-25T20:21:29.966Z,5.77
2022-12-25T20:23:57.842Z,5.57
2022-12-25T20:26:26.435Z,5.13
2022-12-25T20:28:53.639Z,6.07
2022-12-25T20:31:28.300Z,6.23
2022-12-25T20:33:56.320Z,6.10
2022-12-25T20:36:23.666Z,7.43
2022-12-25T20:38:50.898Z,7.07
2022-12-25T20:41:28.429Z,8.80
2022-12-25T20:43:56.224Z,9.03
2022-12-25T20:46:23.938Z,8.97
2022-12-25T20:48:52.710Z,11.20
2022-12-25T20:51:21.368Z,11.27
2022-12-25T20:53:48.691Z,10.13
2022-12-25T20:56:16.676Z,10.13
2022-12-25T20:58:43.839Z,13.53
2022-12-25T21:01:12.604Z,11.33
2022-12-25T21:03:40.331Z,10.63
2022-12-25T21:06:08.013Z,9.63
2022-12-25T21:08:35.478Z,10.67
2022-12-25T21:11:04.124Z,11.20
2022-12-25T21:13:32.431Z,11.03
2022-12-25T21:15:59.940Z,12.03
2022-12-25T21:18:28.189Z,12.20
2022-12-25T21:20:56.702Z,13.17
2022-12-25T21:23:26.563Z,14.70
2022-12-25T21:25:55.599Z,13.80
2022-12-25T21:28:24.219Z,13.00
2022-12-25T21:30:51.367Z,12.40
2022-12-25T21:33:37.369Z,11.67
2022-12-25T21:36:08.561Z,11.47
2022-12-25T21:38:35.973Z,12.53
2022-12-25T21:41:07.114Z,13.40
2022-12-25T21:43:35.249Z,13.40
2022-12-25T21:46:06.132Z,12.47
2022-12-25T21:48:34.775Z,10.80
2022-12-25T21:51:24.646Z,9.70
2022-12-25T21:53:51.903Z,7.37
2022-12-25T21:56:19.128Z,9.13
2022-12-25T21:58:47.207Z,9.80
2022-12-25T22:01:17.793Z,9.37
2022-12-25T22:03:45.076Z,10.13
2022-12-25T22:06:31.903Z,9.93
2022-12-25T22:08:59.082Z,8.30
2022-12-25T22:11:45.264Z,7.87
2022-12-25T22:14:52.873Z,7.70
2022-12-25T22:17:41.457Z,8.23
2022-12-25T22:20:10.304Z,8.37
2022-12-25T22:22:37.607Z,8.17
2022-12-25T22:25:06.378Z,8.67
2022-12-25T22:27:34.879Z,8.70
2022-12-25T22:30:02.438Z,8.47
2022-12-25T22:32:29.701Z,9.07
2022-12-25T22:34:56.913Z,8.80
2022-12-25T22:37:24.335Z,8.60
2022-12-25T22:39:51.477Z,7.20
2022-12-25T22:42:18.595Z,7.70
2022-12-25T22:44:47.828Z,7.60
2022-12-25T22:47:15.346Z,7.67
2022-12-25T22:49:42.496Z,8.87
2022-12-25T22:52:10.423Z,8.37
2022-12-25T22:54:37.679Z,8.50
2022-12-25T22:57:05.260Z,9.17
2022-12-25T22:59:35.544Z,8.53
2022-12-25T23:02:03.104Z,7.97
2022-12-25T23:04:30.713Z,7.50
2022-12-25T23:06:58.244Z,7.57
2022-12-25T23:09:27.864Z,7.70
2022-12-25T23:11:58.962Z,8.03
2022-12-25T23:14:39.156Z,6.83
2022-12-25T23:17:30.400Z,7.97
2022-12-25T23:20:17.082Z,7.53
2022-12-25T23:23:02.841Z,6.80
2022-12-25T23:25:49.201Z,7.33
2022-12-25T23:28:36.447Z,7.33
2022-12-25T23:31:03.690Z,7.20
2022-12-25T23:33:30.908Z,6.47
2022-12-25T23:35:58.058Z,7.07
2022-12-25T23:38:25.223Z,7.90
2022-12-25T23:40:52.740Z,9.60
2022-12-25T23:43:19.996Z,7.83
2022-12-25T23:45:47.198Z,8.07
2022-12-25T23:48:14.445Z,8.07
2022-12-25T23:50:41.643Z,8.17
2022-12-25T23:53:08.772Z,7.93
2022-12-25T23:55:36.386Z,8.00
2022-12-25T23:58:03.513Z,8.13
